Last 30 Days

Top of 15 - 9,047ft

Hourly Data | America/Los_Angeles
as of 7/14/24 3:19 PM PDT
Date & Time Temp (°F) WindChill (°F) RH (%) Dew Pt (°F) Wet Bulb (°F) Wind Dir (°) Wind Spd (mph) Wind Gust (mph) Wind Gst Dir (°) Daily Min Temp (°F) Daily Max Temp (°F) Daily Max Wind (mph)
7/14/24 - 1500 67.1 - 33 37.1 51.2 SW | 227 6.1 19.0 WSW | 248 49.3 68.8 26.0
7/14/24 - 1400 64.6 - 37 37.7 50.6 SW | 228 6.6 20.9 SW | 229 49.3 67.0 26.0
7/14/24 - 1300 63.4 - 38 37.5 50.0 WSW | 237 3.9 17.1 SSW | 202 49.3 66.6 26.0
7/14/24 - 1200 61.7 - 43 39.1 50.1 WSW | 251 4.2 19.7 W | 272 49.3 65.8 26.0
7/14/24 - 1100 53.7 - 60 39.8 47.0 W | 266 3.3 10.3 W | 266 49.3 60.1 26.0
7/14/24 - 1000 54.7 - 57 39.7 47.5 W | 280 5.7 26.0 W | 276 51.0 57.5 26.0
7/14/24 - 0900 55.5 - 59 41.5 48.6 WSW | 250 3.7 18.2 WSW | 255 52.1 57.5 18.2
7/14/24 - 0800 56.5 - 54 40.1 48.4 WSW | 249 3.3 15.1 WSW | 245 52.1 57.5 15.1
7/14/24 - 0700 56.8 - 51 39.1 48.1 WSW | 258 2.5 11.3 W | 272 52.1 57.3 11.3
7/14/24 - 0600 56.4 - 54 39.8 48.2 W | 274 2.5 8.9 W | 281 52.1 57.3 9.2
7/14/24 - 0500 56.0 - 53 38.8 47.6 NW | 309 1.5 9.2 W | 262 52.1 57.3 9.2
7/14/24 - 0400 52.9 - 54 36.7 45.3 NW | 304 1.0 6.5 W | 272 52.1 55.4 6.5
7/14/24 - 0300 53.9 - 53 37.0 45.9 WNW | 300 1.1 4.4 NW | 307 52.9 55.4 4.4
7/14/24 - 0200 54.8 - 54 38.4 46.9 WNW | 303 1.0 3.0 WNW | 286 54.0 55.4 3.0
7/14/24 - 0100 54.7 - 55 39.1 47.2 NNW | 328 1.4 5.4 WNW | 286 49.6 74.8 36.8
7/14/24 - 0000 52.8 - 67 42.0 47.7 NW | 312 2.5 5.8 WNW | 283 49.6 74.8 36.8
7/13/24 - 2300 50.8 - 80 44.8 48.2 ENE | 75 1.0 4.6 ESE | 103 49.6 74.8 36.8
7/13/24 - 2200 53.4 - 72 44.8 49.4 NE | 49 3.2 10.7 ENE | 77 52.2 74.8 36.8
7/13/24 - 2100 56.9 - 55 40.8 48.9 ENE | 77 3.1 13.1 E | 88 52.9 74.8 36.8
7/13/24 - 2000 61.2 - 35 33.5 47.6 WSW | 255 6.3 15.5 SSE | 151 52.9 74.8 36.8
7/13/24 - 1900 60.6 - 36 33.5 47.4 W | 270 6.2 19.1 W | 264 52.9 74.8 36.8
7/13/24 - 1800 55.9 - 49 36.9 46.7 W | 265 8.7 22.8 WNW | 298 52.9 74.8 36.8
7/13/24 - 1700 59.2 - 45 36.9 48.1 SW | 235 9.8 36.8 SW | 232 52.9 74.8 36.8
7/13/24 - 1600 70.0 - 23 30.6 49.9 SW | 230 4.4 15.8 W | 276 57.6 74.8 22.8
7/13/24 - 1500 69.4 - 23 30.0 49.5 SSE | 166 1.4 8.8 NE | 40 57.6 74.8 22.8
7/13/24 - 1400 68.6 - 25 31.2 49.6 ESE | 102 5.3 19.3 ESE | 114 57.6 74.8 22.8
7/13/24 - 1300 69.9 - 22 29.6 49.6 SE | 146 7.1 22.1 SE | 125 57.6 74.8 22.8
7/13/24 - 1200 70.7 - 20 28.1 49.5 SE | 129 3.6 21.8 SE | 146 57.6 74.8 22.8
7/13/24 - 1100 66.7 - 24 29.0 48.3 WSW | 242 3.1 14.4 W | 259 57.6 71.2 22.8
7/13/24 - 1000 64.8 - 26 29.0 47.6 WSW | 248 5.3 14.4 WSW | 248 57.6 67.3 22.8
7/13/24 - 0900 64.0 - 25 27.8 46.9 W | 268 8.4 22.8 WNW | 290 57.6 67.1 22.8
7/13/24 - 0800 64.6 - 23 26.2 46.7 W | 275 5.0 17.0 W | 281 57.6 67.1 17.0
7/13/24 - 0700 61.6 - 27 26.9 45.7 WNW | 295 4.0 8.8 WNW | 287 57.6 64.6 12.4
7/13/24 - 0600 61.1 - 26 26.2 45.3 WNW | 288 3.0 4.9 WNW | 285 57.6 64.6 12.4
7/13/24 - 0500 60.4 - 26 25.8 44.8 WNW | 292 1.9 4.7 WNW | 294 57.6 64.6 12.4
7/13/24 - 0400 60.4 - 27 26.0 44.9 NNW | 334 2.0 7.2 NNW | 330 57.6 64.6 12.4
7/13/24 - 0300 60.8 - 27 26.2 45.2 NNW | 328 2.0 8.7 NW | 313 57.6 64.6 12.4
7/13/24 - 0200 63.1 - 24 25.8 46.0 NW | 314 2.8 12.4 W | 280 62.0 64.6 12.4
7/13/24 - 0100 64.4 - 23 26.0 46.6 WNW | 284 3.7 9.4 W | 262 60.4 78.1 29.8
7/13/24 - 0000 63.6 - 25 26.9 46.5 NW | 309 2.3 7.3 NW | 324 60.4 78.1 29.8
7/12/24 - 2300 64.0 - 31 32.0 48.3 NNW | 327 2.4 9.2 NW | 320 60.4 78.1 29.8
7/12/24 - 2200 64.7 - 30 32.4 48.7 WSW | 247 6.6 18.4 W | 279 60.4 78.1 29.8
7/12/24 - 2100 64.8 - 32 33.3 49.2 W | 266 8.4 22.2 WSW | 258 60.4 78.1 29.8
7/12/24 - 2000 68.0 - 18 23.1 47.2 W | 269 5.5 16.2 WSW | 258 60.4 78.1 29.8
7/12/24 - 1900 68.6 - 19 24.8 47.8 W | 261 3.7 9.6 W | 265 60.4 78.1 29.8
7/12/24 - 1800 69.7 - 19 25.1 48.4 W | 275 2.3 10.2 NW | 307 60.4 78.1 29.8
7/12/24 - 1700 69.9 - 19 25.4 48.5 W | 261 2.6 11.2 W | 273 60.4 78.1 29.8
7/12/24 - 1600 68.6 - 20 25.8 48.1 SW | 234 7.7 29.8 W | 265 60.4 78.1 29.8
7/12/24 - 1500 70.9 - 16 23.1 48.3 SW | 230 4.8 23.0 SSW | 212 60.4 78.1 23.0
7/12/24 - 1400 74.5 - 13 20.2 48.9 SSE | 168 3.0 16.6 SSE | 158 60.4 78.1 16.6
7/12/24 - 1300 74.2 - 13 20.3 48.8 SE | 127 4.0 14.5 SE | 143 60.4 78.1 14.5
7/12/24 - 1200 75.0 - 12 19.5 48.9 SE | 135 4.1 12.8 SSE | 154 60.4 78.1 12.8
7/12/24 - 1100 74.0 - 15 23.4 49.4 SE | 132 3.1 10.4 ESE | 116 60.4 76.8 11.0
7/12/24 - 1000 71.4 - 16 23.5 48.6 ESE | 123 2.4 7.5 SE | 141 60.4 73.6 11.0
7/12/24 - 0900 69.8 - 18 24.0 48.1 SE | 125 1.5 7.3 N | 358 60.4 71.5 11.0
7/12/24 - 0800 68.0 - 18 22.8 47.2 WSW | 253 0.9 3.7 WNW | 299 60.4 69.2 11.0
7/12/24 - 0700 64.3 - 21 23.6 45.9 WNW | 296 3.6 9.8 WNW | 282 60.4 67.2 11.0
7/12/24 - 0600 62.5 - 20 20.9 44.5 NW | 324 3.1 8.7 WNW | 285 60.4 67.2 11.0
7/12/24 - 0500 62.6 - 20 20.8 44.5 WNW | 302 3.0 6.9 WNW | 283 61.1 67.2 11.0
7/12/24 - 0400 63.5 - 19 20.3 44.8 NW | 311 2.7 8.9 W | 279 61.6 67.2 11.0
7/12/24 - 0300 64.7 - 19 21.5 45.6 NW | 306 3.0 7.2 WNW | 285 63.1 67.2 11.0
7/12/24 - 0200 65.3 - 18 21.0 45.7 WNW | 300 2.9 11.0 WSW | 241 63.5 67.2 11.0
7/12/24 - 0100 65.9 - 19 22.0 46.2 W | 270 6.3 14.9 WNW | 287 62.3 79.1 22.4
7/12/24 - 0000 66.3 - 18 22.1 46.3 W | 261 6.3 15.0 WSW | 240 62.3 79.1 22.4
7/11/24 - 2300 65.9 - 24 27.6 47.6 W | 260 5.4 14.5 W | 278 62.3 79.1 22.4
7/11/24 - 2200 66.2 - 27 30.7 48.7 WSW | 258 5.1 16.8 W | 280 62.3 79.1 22.4
7/11/24 - 2100 66.5 - 29 32.9 49.5 W | 270 9.6 21.3 W | 273 62.3 79.1 22.4
7/11/24 - 2000 67.9 - 24 29.4 48.9 W | 280 7.5 21.4 WNW | 299 62.3 79.1 22.4
7/11/24 - 1900 70.3 - 16 21.0 47.6 W | 280 6.8 20.3 W | 264 62.3 79.1 22.4
7/11/24 - 1800 72.1 - 10 13.3 46.8 W | 273 5.7 20.1 W | 278 62.3 79.1 22.4
7/11/24 - 1700 74.2 - 9 12.3 47.4 W | 266 3.2 12.8 WNW | 293 62.3 79.1 22.4
7/11/24 - 1600 75.2 - 9 13.4 47.9 SW | 236 5.5 22.4 W | 262 62.3 79.1 22.4
7/11/24 - 1500 75.9 - 8 11.3 47.8 WSW | 239 4.8 18.4 WSW | 237 62.3 79.1 19.7
7/11/24 - 1400 75.3 - 7 8.2 47.2 W | 275 3.8 16.2 W | 272 62.3 79.1 19.7
7/11/24 - 1300 75.6 - 7 8.2 47.3 WSW | 254 4.6 16.1 W | 261 62.3 79.1 19.7
7/11/24 - 1200 74.0 - 8 8.7 46.8 W | 274 4.1 17.0 WNW | 285 62.3 77.0 19.7
7/11/24 - 1100 73.5 - 8 9.6 46.8 WSW | 255 3.8 14.1 WNW | 285 62.3 75.1 19.7
7/11/24 - 1000 73.2 - 9 10.8 46.8 S | 174 - - S | 174 62.3 75.0 19.7
7/11/24 - 0900 72.4 - 9 10.7 46.5 SE | 145 0.8 4.7 ESE | 114 62.3 74.3 19.7
7/11/24 - 0800 69.6 - 11 12.0 45.7 SW | 236 0.9 6.1 WSW | 254 62.3 71.7 19.7
7/11/24 - 0700 65.3 - 10 7.5 43.3 WNW | 293 1.8 6.9 WNW | 289 62.3 67.7 19.7
7/11/24 - 0600 63.9 - 9 3.1 42.1 WNW | 302 3.4 6.9 WNW | 287 62.3 67.1 19.7
7/11/24 - 0500 66.6 - 7 1.6 43.1 WNW | 297 2.8 11.3 NW | 318 65.8 67.1 19.7
7/11/24 - 0400 66.3 - 7 1.5 43.0 W | 265 3.2 15.8 WNW | 287 65.8 67.1 19.7
7/11/24 - 0300 66.5 - 7 0.1 42.9 WSW | 258 4.8 16.6 W | 263 65.8 67.1 19.7
7/11/24 - 0200 66.7 - 6 -1.2 42.9 W | 263 6.1 19.7 W | 259 66.4 67.1 19.7
7/11/24 - 0100 66.8 - 6 -1.1 42.9 W | 260 6.3 22.8 W | 279 60.8 77.6 30.8
7/11/24 - 0000 66.7 - 9 5.1 43.6 W | 277 10.7 26.0 WNW | 300 60.8 77.6 30.8
7/10/24 - 2300 66.6 - 11 10.2 44.2 W | 277 10.4 21.3 W | 278 60.8 77.6 30.8
7/10/24 - 2200 67.0 - 11 10.5 44.4 W | 279 9.3 22.9 WNW | 289 60.8 77.6 30.8
7/10/24 - 2100 67.5 - 9 6.9 44.1 W | 276 9.9 25.8 WNW | 296 60.8 77.6 30.8
7/10/24 - 2000 68.5 - 10 9.6 44.9 WNW | 282 11.1 26.1 WNW | 288 60.8 77.6 30.8
7/10/24 - 1900 69.7 - 10 10.8 45.5 WNW | 284 10.6 24.2 WNW | 286 60.8 77.6 30.8
7/10/24 - 1800 71.8 - 9 9.9 46.2 WNW | 284 7.4 24.9 NW | 304 60.8 77.6 30.8
7/10/24 - 1700 72.7 - 8 8.6 46.4 W | 273 6.2 26.0 W | 280 60.8 77.6 30.8
7/10/24 - 1600 73.2 - 8 7.3 46.4 W | 274 7.7 27.9 NW | 304 60.8 77.6 30.8
7/10/24 - 1500 74.0 - 7 5.5 46.4 W | 266 8.3 30.8 NW | 312 60.8 77.6 30.8
7/10/24 - 1400 74.4 - 6 3.7 46.4 W | 264 6.9 25.8 WNW | 284 60.8 77.6 26.1
7/10/24 - 1300 76.0 - 6 3.8 47.0 WSW | 241 6.7 26.1 WNW | 295 60.8 77.6 26.1
7/10/24 - 1200 75.4 - 4 -3.2 46.1 SW | 222 5.9 25.9 SSW | 192 60.8 77.4 25.9
7/10/24 - 1100 74.5 - 8 5.5 46.9 S | 186 4.1 24.3 W | 272 60.8 76.5 24.3
7/10/24 - 1000 71.4 - 15 20.8 48.0 SE | 142 1.6 5.7 SE | 141 60.8 74.9 12.6
7/10/24 - 0900 69.0 - 18 24.2 47.8 S | 173 0.9 3.8 S | 182 60.8 71.5 12.6
7/10/24 - 0800 69.7 - 16 22.2 47.6 WSW | 245 1.5 5.9 W | 278 60.8 71.5 12.6
7/10/24 - 0700 63.8 - 21 23.4 45.7 WNW | 284 4.5 9.4 WNW | 284 60.8 66.8 12.6
7/10/24 - 0600 62.2 - 19 19.1 44.0 NW | 311 1.8 9.6 W | 274 60.8 66.5 12.6
7/10/24 - 0500 62.2 - 19 19.4 44.0 WNW | 286 6.6 12.4 W | 266 60.8 66.5 12.6
7/10/24 - 0400 61.7 - 19 18.4 43.6 WNW | 286 7.0 11.9 WNW | 286 60.8 66.5 12.6
7/10/24 - 0300 63.3 - 15 14.2 43.4 WNW | 290 4.1 12.6 W | 261 61.5 66.5 12.6
7/10/24 - 0200 65.6 - 12 12.4 44.1 W | 279 3.1 8.7 WNW | 292 64.5 66.5 8.7
7/10/24 - 0100 65.2 - 14 14.4 44.3 W | 266 7.3 17.3 WSW | 257 63.7 77.8 33.2
7/10/24 - 0000 65.2 - 17 18.5 45.1 W | 264 10.5 27.8 W | 278 63.7 77.8 33.2
7/9/24 - 2300 64.6 - 24 27.0 47.0 W | 261 11.6 27.0 W | 259 63.7 77.8 33.2
7/9/24 - 2200 65.0 - 21 24.2 46.4 WSW | 256 11.0 26.7 W | 261 63.7 77.8 33.2
7/9/24 - 2100 65.0 - 21 24.4 46.4 WSW | 254 13.1 28.6 WNW | 293 63.7 77.8 33.2
7/9/24 - 2000 65.9 - 22 26.2 47.2 W | 266 16.1 33.2 WSW | 256 63.7 77.8 33.2
7/9/24 - 1900 68.1 - 16 20.0 46.6 W | 274 15.1 30.0 W | 272 63.7 77.8 31.0
7/9/24 - 1800 70.9 - 14 18.9 47.4 W | 277 14.0 31.0 WNW | 282 63.7 77.8 31.0
7/9/24 - 1700 72.3 - 14 20.5 48.2 W | 272 9.8 26.1 W | 275 63.7 77.8 26.1
7/9/24 - 1600 73.2 - 13 19.4 48.3 W | 278 9.2 22.6 WNW | 283 63.7 77.8 24.8
7/9/24 - 1500 73.6 - 11 15.9 47.8 WNW | 282 9.1 24.8 W | 261 63.7 77.8 24.8
7/9/24 - 1400 74.3 - 7 5.6 46.6 W | 277 7.2 18.4 NW | 317 63.7 77.8 21.4
7/9/24 - 1300 74.7 - 6 1.4 46.3 W | 272 5.0 15.6 WNW | 300 63.7 77.8 21.4
7/9/24 - 1200 75.3 - 9 12.0 47.8 SE | 139 2.8 10.5 SW | 236 63.7 77.2 21.4
7/9/24 - 1100 73.4 - 10 14.2 47.4 SE | 140 2.6 8.9 SSE | 152 63.7 76.3 21.4
7/9/24 - 1000 71.3 - 13 17.2 47.2 ESE | 120 2.1 6.7 ESE | 118 63.7 74.0 21.4
7/9/24 - 0900 71.0 - 8 5.6 45.5 ESE | 111 2.1 5.6 ESE | 122 63.7 72.9 21.4
7/9/24 - 0800 69.4 - 4 -10.3 43.3 E | 100 1.3 5.0 SSE | 155 63.7 71.3 21.4
7/9/24 - 0700 66.8 - 4 -12.0 42.1 WNW | 289 3.0 14.1 WNW | 282 63.7 69.2 21.4
7/9/24 - 0600 65.4 - 4 -10.1 41.6 WNW | 287 6.1 12.0 W | 279 63.7 69.2 21.4
7/9/24 - 0500 65.0 - 6 -4.5 41.8 WNW | 287 6.3 13.6 WNW | 288 63.7 69.2 21.4
7/9/24 - 0400 65.3 - 7 -0.1 42.4 W | 277 7.0 12.7 W | 261 63.9 69.2 21.4
7/9/24 - 0300 67.3 - 4 -11.6 42.5 WSW | 253 7.1 16.6 WNW | 282 65.6 69.2 21.4
7/9/24 - 0200 67.2 - 6 -5.5 42.8 W | 269 9.7 21.4 W | 275 65.8 68.6 21.4
7/9/24 - 0100 66.4 - 10 8.1 43.8 W | 277 11.6 24.3 W | 278 61.3 78.7 31.0
7/9/24 - 0000 66.0 - 16 18.2 45.4 W | 274 11.4 26.5 WNW | 291 61.3 78.7 31.0
7/8/24 - 2300 65.3 - 19 22.5 46.0 W | 265 10.8 27.0 W | 266 61.3 78.7 31.0
7/8/24 - 2200 65.6 - 19 21.9 46.0 W | 265 10.8 31.0 W | 281 61.3 78.7 31.0
7/8/24 - 2100 65.8 - 22 25.4 46.9 W | 279 13.2 27.6 W | 273 61.3 78.7 27.6
7/8/24 - 2000 67.3 - 22 27.6 48.1 WNW | 282 10.3 26.9 W | 272 61.3 78.7 26.9
7/8/24 - 1900 68.8 - 23 29.7 49.3 WNW | 285 7.4 22.7 NW | 312 61.3 78.7 25.4
7/8/24 - 1800 71.4 - 22 30.1 50.3 WNW | 283 4.0 16.5 WNW | 288 61.3 78.7 25.4
7/8/24 - 1700 73.1 - 19 28.7 50.5 W | 260 4.8 20.1 W | 278 61.3 78.7 25.4
7/8/24 - 1600 74.7 - 15 24.7 49.9 W | 268 7.1 25.4 W | 265 61.3 78.7 25.4
7/8/24 - 1500 75.3 - 14 22.5 49.6 WSW | 254 6.3 22.1 WNW | 282 61.3 78.7 22.9
7/8/24 - 1400 75.8 - 13 20.8 49.5 WSW | 256 6.6 21.9 WSW | 243 61.3 78.7 22.9
7/8/24 - 1300 75.6 - 12 20.2 49.3 W | 259 6.1 22.9 NNW | 343 61.3 78.7 22.9
7/8/24 - 1200 76.0 - 16 26.0 50.7 SE | 142 2.5 9.2 ESE | 115 61.3 78.7 12.3
7/8/24 - 1100 73.3 - 19 28.6 50.5 SE | 124 2.4 9.5 ESE | 109 61.3 76.4 12.3
7/8/24 - 1000 71.5 - 19 26.7 49.4 ESE | 110 3.1 10.6 E | 85 61.3 74.0 12.3
7/8/24 - 0900 71.1 - 18 26.0 49.1 SE | 146 1.9 7.2 SW | 231 61.3 72.7 12.3
7/8/24 - 0800 68.5 - 20 26.1 48.1 WSW | 252 4.0 10.6 W | 272 61.3 71.4 12.3
7/8/24 - 0700 64.7 - 23 25.9 46.6 W | 269 5.1 12.3 WSW | 237 61.3 66.9 12.3
7/8/24 - 0600 63.1 - 24 25.6 45.9 W | 274 4.9 9.7 WSW | 254 61.3 66.9 11.4
7/8/24 - 0500 62.9 - 24 25.7 45.9 W | 272 5.8 10.9 W | 265 61.3 66.9 11.4
7/8/24 - 0400 63.0 - 26 27.1 46.3 W | 268 5.7 11.4 WNW | 300 61.5 66.9 11.4
7/8/24 - 0300 63.0 - 25 26.3 46.1 W | 273 5.9 11.1 WNW | 283 61.5 66.9 11.1
7/8/24 - 0200 63.6 - 24 25.9 46.2 W | 279 3.9 8.1 WNW | 288 61.8 66.9 8.1
7/8/24 - 0100 65.9 - 23 27.3 47.5 W | 271 4.6 9.3 W | 264 60.4 79.8 27.6
7/8/24 - 0000 66.2 - 26 30.2 48.5 W | 272 4.0 9.6 W | 272 60.4 79.8 27.6
7/7/24 - 2300 66.0 - 29 32.8 49.2 WSW | 256 6.2 20.2 W | 261 60.4 79.8 27.6
7/7/24 - 2200 65.8 - 30 33.1 49.3 WSW | 254 9.3 27.2 W | 272 60.4 79.8 27.6
7/7/24 - 2100 67.2 - 28 32.8 49.7 W | 261 11.9 27.1 W | 277 60.4 79.8 27.6
7/7/24 - 2000 68.6 - 28 34.5 50.8 W | 271 12.4 27.6 WNW | 290 60.4 79.8 27.6
7/7/24 - 1900 70.4 - 26 33.8 51.1 W | 274 11.0 26.4 WNW | 302 60.4 79.8 26.4
7/7/24 - 1800 73.0 - 19 28.2 50.3 W | 271 9.2 24.2 WNW | 290 60.4 79.8 25.0
7/7/24 - 1700 74.6 - 16 25.5 50.1 W | 273 8.6 25.0 W | 276 60.4 79.8 25.0
7/7/24 - 1600 75.8 - 14 23.7 50.1 W | 269 7.3 19.6 WNW | 293 60.4 79.8 19.6
7/7/24 - 1500 76.6 - 13 21.6 49.9 WSW | 253 5.1 17.4 W | 275 60.4 79.8 18.7
7/7/24 - 1400 76.9 - 12 20.6 49.8 SW | 227 6.6 18.7 WSW | 243 60.4 78.9 18.7
7/7/24 - 1300 75.2 - 14 23.1 49.7 SW | 222 6.1 17.2 WSW | 250 60.4 77.9 17.2
7/7/24 - 1200 74.6 - 14 22.5 49.4 SW | 226 5.3 16.1 WSW | 239 60.4 77.9 16.6
7/7/24 - 1100 73.5 - 16 24.1 49.4 WSW | 245 4.1 14.3 W | 260 60.4 75.7 16.6
7/7/24 - 1000 71.8 - 18 26.6 49.5 W | 260 3.5 16.6 SW | 227 60.4 74.9 16.6
7/7/24 - 0900 72.1 - 18 25.7 49.3 SSW | 198 1.6 11.7 S | 176 60.4 73.8 11.7
7/7/24 - 0800 71.6 - 20 28.5 49.9 W | 268 3.2 7.8 W | 260 60.4 73.7 8.6
7/7/24 - 0700 64.8 - 28 30.5 48.0 WNW | 284 4.6 8.0 WNW | 299 60.4 69.6 8.6
7/7/24 - 0600 60.9 - 27 26.8 45.3 WNW | 289 4.5 7.5 WNW | 293 60.4 66.9 8.6
7/7/24 - 0500 62.9 - 24 25.7 45.9 WNW | 297 3.7 8.2 W | 273 61.5 66.9 8.6
7/7/24 - 0400 64.9 - 21 23.8 46.2 NW | 308 3.3 5.7 NW | 317 63.3 66.9 8.6
7/7/24 - 0300 65.1 - 22 24.9 46.5 WNW | 292 3.3 5.4 NW | 304 63.9 66.9 8.6
7/7/24 - 0200 65.4 - 22 25.5 46.8 W | 280 4.6 8.6 W | 272 64.1 66.9 8.6
7/7/24 - 0100 66.6 - 22 27.1 47.7 WNW | 290 2.7 7.4 W | 280 58.4 80.6 26.6
7/7/24 - 0000 66.4 - 24 28.6 48.1 WNW | 283 4.4 8.7 WNW | 285 58.4 80.6 26.6
7/6/24 - 2300 66.4 - 26 30.6 48.7 W | 275 4.6 12.6 W | 261 58.4 80.6 26.6
7/6/24 - 2200 66.4 - 30 34.1 49.8 W | 264 7.2 18.9 W | 272 58.4 80.6 26.6
7/6/24 - 2100 67.8 - 27 32.2 49.7 W | 264 10.6 26.3 W | 272 58.4 80.6 26.6
7/6/24 - 2000 69.1 - 24 30.8 49.7 W | 271 12.4 26.6 WNW | 282 58.4 80.6 26.6
7/6/24 - 1900 70.5 - 21 29.0 49.7 W | 276 11.5 22.9 WNW | 286 58.4 80.6 24.1
7/6/24 - 1800 72.6 - 19 28.5 50.2 W | 271 10.0 24.1 WNW | 282 58.4 80.6 24.1
7/6/24 - 1700 74.0 - 17 26.0 50.0 W | 259 7.0 22.6 SW | 217 58.4 80.6 22.6
7/6/24 - 1600 75.6 - 13 21.3 49.6 W | 259 6.1 19.4 W | 266 58.4 80.6 19.4
7/6/24 - 1500 77.8 - 8 12.1 48.6 SW | 219 3.5 16.7 WSW | 242 58.4 80.6 16.7
7/6/24 - 1400 78.3 - 8 11.4 48.7 SW | 219 3.2 13.1 WSW | 247 58.4 80.6 13.6
7/6/24 - 1300 77.0 - 9 14.0 48.6 SSE | 165 3.2 13.6 SW | 220 58.4 80.4 13.6
7/6/24 - 1200 75.0 - 10 15.2 48.2 SE | 134 3.3 10.7 SE | 142 58.4 77.2 10.7
7/6/24 - 1100 72.0 - 11 13.8 46.9 ESE | 122 2.6 9.3 ESE | 120 58.4 76.3 9.3
7/6/24 - 1000 70.4 - 10 11.9 46.0 SE | 126 2.7 7.8 ESE | 108 58.4 73.1 7.8
7/6/24 - 0900 69.4 - 11 12.1 45.6 SE | 124 1.0 4.5 E | 82 58.4 71.4 5.7
7/6/24 - 0800 69.0 - 12 14.7 45.9 S | 191 0.3 2.3 W | 279 58.4 70.0 5.7
7/6/24 - 0700 63.6 - 15 14.3 43.6 WNW | 289 3.1 5.7 WNW | 289 58.4 68.3 5.7
7/6/24 - 0600 59.5 - 14 10.2 41.1 NNW | 337 0.6 2.3 NNW | 328 58.4 61.7 4.9
7/6/24 - 0500 59.3 - 14 10.0 41.0 NNW | 328 0.4 2.6 N | 360 58.6 61.7 4.9
7/6/24 - 0400 59.9 - 14 9.8 41.2 NNW | 331 1.1 2.9 N | 349 59.1 61.7 4.9
7/6/24 - 0300 60.0 - 13 9.7 41.3 NNW | 331 1.6 4.9 N | 7 59.5 61.7 4.9
7/6/24 - 0200 60.5 - 14 10.3 41.6 NNW | 329 1.0 3.0 NW | 309 59.8 61.7 3.0
7/6/24 - 0100 61.0 - 14 11.6 42.0 NW | 314 1.6 4.0 NW | 308 57.3 79.5 22.3
7/6/24 - 0000 61.6 - 15 13.4 42.6 NW | 315 2.1 4.8 NNE | 18 57.3 79.5 22.3
7/5/24 - 2300 62.7 - 19 20.4 44.5 NW | 319 1.7 5.2 NNW | 334 57.3 79.5 22.3
7/5/24 - 2200 65.9 - 19 22.2 46.2 WNW | 303 2.4 7.5 WNW | 289 57.3 79.5 22.3
7/5/24 - 2100 67.0 - 28 32.8 49.6 WNW | 294 5.0 16.1 WNW | 285 57.3 79.5 22.3
7/5/24 - 2000 67.3 - 30 35.2 50.6 W | 270 7.8 20.4 W | 266 57.3 79.5 22.3
7/5/24 - 1900 69.1 - 26 33.0 50.4 W | 259 7.6 18.7 WNW | 283 57.3 79.5 22.3
7/5/24 - 1800 71.3 - 26 34.4 51.6 W | 263 8.1 19.8 WSW | 252 57.3 79.5 22.3
7/5/24 - 1700 72.7 - 23 32.3 51.4 W | 263 8.0 22.3 WNW | 285 57.3 79.5 22.3
7/5/24 - 1600 75.2 - 15 23.8 49.9 WSW | 257 6.1 17.0 W | 264 57.3 79.5 18.1
7/5/24 - 1500 75.5 - 11 17.1 48.7 ESE | 115 3.8 18.1 SW | 229 57.3 79.5 18.1
7/5/24 - 1400 76.8 - 10 17.2 49.1 E | 88 4.1 14.4 ENE | 74 57.3 79.5 14.4
7/5/24 - 1300 74.6 - 11 16.5 48.2 SSE | 164 3.0 10.6 ESE | 113 57.3 77.0 11.9
7/5/24 - 1200 73.2 - 11 16.4 47.7 SE | 128 2.5 11.9 ESE | 116 57.3 76.1 11.9
7/5/24 - 1100 70.9 - 12 15.5 46.7 SE | 141 2.4 9.2 SE | 136 57.3 73.7 9.2
7/5/24 - 1000 69.1 - 11 12.4 45.5 ESE | 114 2.3 8.3 SE | 133 57.3 71.4 8.3
7/5/24 - 0900 67.7 - 11 11.2 44.8 ESE | 113 2.9 7.6 ENE | 63 57.3 69.2 7.6
7/5/24 - 0800 66.3 - 12 12.2 44.4 SW | 218 0.5 2.7 WNW | 288 57.3 67.9 4.5
7/5/24 - 0700 61.9 - 14 12.5 42.6 NW | 307 0.9 2.6 WNW | 285 57.3 65.6 4.5
7/5/24 - 0600 58.4 - 13 8.3 40.3 NNW | 346 1.1 3.5 NW | 311 57.3 59.2 4.5
7/5/24 - 0500 58.0 - 15 10.8 40.5 NW | 320 1.6 4.0 NW | 304 57.3 59.1 4.5
7/5/24 - 0400 58.2 - 17 13.5 41.1 NW | 313 1.0 4.5 NW | 304 57.3 59.1 4.5
7/5/24 - 0300 58.0 - 22 19.6 42.3 NNW | 332 1.0 3.4 NW | 308 57.3 58.9 4.0
7/5/24 - 0200 58.1 - 23 20.2 42.4 NW | 326 1.0 4.0 NNW | 331 57.3 58.9 4.0
7/5/24 - 0100 58.9 - 20 17.4 42.2 NW | 318 1.3 3.9 NW | 317 57.5 76.9 24.9
7/5/24 - 0000 60.1 - 21 19.5 43.1 NNW | 327 1.6 4.9 NW | 312 57.5 76.9 24.9
7/4/24 - 2300 62.4 - 24 24.8 45.5 NW | 308 2.5 6.9 W | 266 57.5 76.9 24.9
7/4/24 - 2200 65.2 - 24 27.9 47.4 WNW | 287 2.3 7.8 W | 277 57.5 76.9 24.9
7/4/24 - 2100 65.0 - 34 35.6 49.9 W | 273 6.2 17.1 WNW | 284 57.5 76.9 24.9
7/4/24 - 2000 65.7 - 33 36.1 50.3 W | 262 8.9 21.3 WNW | 282 57.5 76.9 24.9
7/4/24 - 1900 67.4 - 28 33.2 49.9 W | 266 10.6 24.9 W | 264 57.5 76.9 24.9
7/4/24 - 1800 69.8 - 22 29.4 49.6 W | 270 9.8 24.5 WNW | 284 57.5 76.9 24.6
7/4/24 - 1700 71.0 - 22 29.6 50.1 W | 267 7.9 24.6 W | 277 57.5 76.9 24.6
7/4/24 - 1600 72.4 - 18 26.4 49.6 WSW | 258 7.2 22.4 WNW | 297 57.5 76.9 22.4
7/4/24 - 1500 74.0 - 14 22.1 49.2 WSW | 237 7.3 19.5 SW | 227 57.5 76.9 21.3
7/4/24 - 1400 74.1 - 15 23.7 49.5 SW | 233 7.4 20.7 SW | 235 57.5 76.9 21.3
7/4/24 - 1300 74.1 - 15 23.5 49.5 SW | 229 6.7 21.3 SW | 229 57.5 76.9 21.3
7/4/24 - 1200 73.5 - 18 27.6 50.3 WSW | 239 3.7 14.1 SW | 216 57.5 76.5 14.1
7/4/24 - 1100 70.1 - 22 29.2 49.6 SE | 141 2.4 8.1 SE | 124 57.5 74.2 11.2
7/4/24 - 1000 68.4 - 22 28.0 48.6 SE | 138 1.8 7.1 ESE | 113 57.5 71.5 11.2
7/4/24 - 0900 66.1 - 23 27.4 47.6 SE | 136 1.9 5.1 SE | 131 57.5 67.9 11.2
7/4/24 - 0800 64.9 - 29 31.5 48.4 SSW | 208 0.4 2.9 S | 188 57.5 65.9 11.2
7/4/24 - 0700 61.3 - 35 33.7 47.7 NW | 320 0.3 3.4 NW | 316 57.5 64.9 11.2
7/4/24 - 0600 58.8 - 41 35.4 47.4 WNW | 299 3.6 9.4 NW | 322 57.5 60.1 11.2
7/4/24 - 0500 58.9 - 45 37.8 48.4 WNW | 303 4.0 8.1 NW | 323 57.8 60.1 11.2
7/4/24 - 0400 58.9 - 45 37.6 48.3 WNW | 289 4.8 9.9 WNW | 284 57.8 60.1 11.2
7/4/24 - 0300 59.0 - 47 38.7 48.8 WNW | 285 5.4 11.2 WNW | 294 58.2 60.1 11.2
7/4/24 - 0200 59.8 - 46 38.9 49.2 WNW | 290 4.6 8.9 WNW | 287 59.3 60.1 8.9
7/4/24 - 0100 60.8 - 45 39.4 49.8 WNW | 298 4.0 10.5 WNW | 296 52.9 73.7 25.2
7/4/24 - 0000 60.8 - 44 39.0 49.7 WNW | 301 5.1 9.8 NW | 318 52.9 73.7 25.2
7/3/24 - 2300 61.6 - 31 30.5 46.9 NW | 315 2.4 9.0 WNW | 284 52.9 73.7 25.2
7/3/24 - 2200 62.9 - 41 38.8 50.4 N | 0 5.1 14.6 WNW | 284 52.9 73.7 25.2
7/3/24 - 2100 63.3 - 40 38.8 50.5 W | 281 6.0 16.0 NW | 325 52.9 73.7 25.2
7/3/24 - 2000 64.5 - 39 39.1 51.1 W | 264 8.7 20.9 WSW | 249 52.9 73.7 25.2
7/3/24 - 1900 66.1 - 36 38.6 51.4 W | 263 10.4 22.6 W | 278 52.9 73.7 25.2
7/3/24 - 1800 68.6 - 32 37.9 52.1 W | 265 10.5 24.0 WNW | 289 52.9 73.7 25.2
7/3/24 - 1700 69.9 - 28 35.0 51.4 WSW | 256 8.5 22.8 WNW | 293 52.9 73.7 25.2
7/3/24 - 1600 70.7 - 23 31.0 50.3 W | 264 8.8 25.2 W | 278 52.9 73.7 25.2
7/3/24 - 1500 70.9 - 21 29.5 50.0 WSW | 252 6.9 22.0 SW | 235 52.9 73.7 23.9
7/3/24 - 1400 70.6 - 21 28.4 49.5 WSW | 248 7.1 20.4 WSW | 238 52.9 73.7 23.9
7/3/24 - 1300 70.7 - 18 25.0 48.7 WSW | 250 6.7 23.9 W | 265 52.9 73.7 23.9
7/3/24 - 1200 69.9 - 17 23.8 48.1 W | 268 6.6 20.9 W | 277 52.9 72.2 20.9
7/3/24 - 1100 69.8 - 17 22.8 47.8 W | 270 4.9 17.3 WSW | 258 52.9 71.7 17.3
7/3/24 - 1000 69.0 - 18 24.0 47.8 SSE | 149 2.0 7.2 SE | 138 52.9 70.9 7.2
7/3/24 - 0900 65.3 - 17 18.9 45.2 SE | 132 1.5 5.3 ESE | 111 52.9 67.9 5.5
7/3/24 - 0800 64.2 - 15 15.1 44.0 SW | 232 0.9 3.7 WSW | 258 52.9 66.6 5.5
7/3/24 - 0700 60.1 - 20 18.8 43.0 WNW | 283 3.5 5.5 W | 281 52.9 66.2 5.5
7/3/24 - 0600 54.0 - 22 16.2 39.6 NW | 322 1.3 4.0 NW | 304 52.9 58.2 4.9
7/3/24 - 0500 54.2 - 22 16.2 39.7 NNW | 329 1.7 4.0 NW | 318 53.1 58.2 4.9
7/3/24 - 0400 54.5 - 22 16.7 39.9 NW | 318 2.2 4.9 NW | 307 53.5 58.2 4.9
7/3/24 - 0300 55.3 - 22 17.5 40.5 NW | 323 1.8 4.2 NW | 324 53.8 58.2 4.4
7/3/24 - 0200 55.9 - 25 20.8 41.5 NNW | 327 2.1 4.4 NW | 318 54.7 58.2 4.4
7/3/24 - 0100 57.5 - 23 19.8 42.0 WNW | 288 2.7 5.5 NW | 304 47.9 73.6 22.3
7/3/24 - 0000 58.6 - 22 19.7 42.5 WNW | 299 2.0 4.5 WNW | 285 47.9 73.6 22.3
7/2/24 - 2300 60.0 - 23 22.5 43.8 NW | 306 2.0 5.5 NNW | 331 47.9 73.6 22.3
7/2/24 - 2200 62.1 - 28 28.2 46.3 WNW | 283 2.0 11.7 WNW | 295 47.9 73.6 22.3
7/2/24 - 2100 62.1 - 38 36.0 48.9 W | 280 5.9 18.3 W | 266 47.9 73.6 22.3
7/2/24 - 2000 62.7 - 39 37.1 49.6 W | 266 8.8 21.8 W | 276 47.9 73.6 22.3
7/2/24 - 1900 64.3 - 36 36.9 50.1 W | 263 10.1 21.6 WNW | 282 47.9 73.6 22.3
7/2/24 - 1800 67.1 - 32 36.4 51.0 W | 261 8.4 21.3 W | 272 47.9 73.6 22.3
7/2/24 - 1700 68.3 - 29 34.7 50.7 WSW | 255 6.7 20.4 W | 275 47.9 73.6 22.3
7/2/24 - 1600 69.1 - 27 34.1 50.8 WSW | 244 7.5 21.9 WSW | 257 47.9 73.6 22.3
7/2/24 - 1500 69.3 - 26 32.9 50.5 WSW | 257 6.9 22.3 WNW | 300 47.9 73.6 22.3
7/2/24 - 1400 69.8 - 23 30.6 49.9 WSW | 254 5.7 19.1 W | 266 47.9 73.6 19.1
7/2/24 - 1300 70.4 - 21 29.0 49.6 SSE | 156 4.0 11.5 SE | 133 47.9 73.6 11.5
7/2/24 - 1200 67.0 - 23 27.5 47.9 SE | 136 3.0 9.1 SE | 144 47.9 70.2 9.1
7/2/24 - 1100 63.4 - 23 25.4 46.0 SSE | 158 2.6 8.1 ESE | 120 47.9 66.0 8.1
7/2/24 - 1000 60.4 - 23 22.9 44.1 ESE | 123 2.7 7.6 ENE | 61 47.9 62.8 8.0
7/2/24 - 0900 59.4 - 24 22.5 43.5 ESE | 106 3.2 8.0 ESE | 109 47.9 60.8 8.0
7/2/24 - 0800 57.5 - 26 22.4 42.7 SSE | 161 0.9 3.9 SE | 145 47.9 58.6 5.3
7/2/24 - 0700 53.8 - 29 22.5 41.0 W | 276 1.9 4.2 WNW | 286 47.9 58.0 5.3
7/2/24 - 0600 49.4 - 33 21.6 38.6 NW | 307 1.4 5.1 NW | 326 47.9 51.6 5.3
7/2/24 - 0500 50.4 - 31 21.3 39.0 NW | 316 1.1 3.7 N | 354 48.7 51.6 5.3
7/2/24 - 0400 50.3 - 33 21.9 39.1 NNW | 328 0.8 2.7 NNW | 341 49.0 51.6 5.3
7/2/24 - 0300 50.0 - 34 23.1 39.3 NNW | 330 1.1 4.5 NW | 312 49.0 51.6 5.3
7/2/24 - 0200 50.3 - 36 24.5 39.8 NNW | 331 1.0 5.3 NW | 314 49.3 51.6 5.3
7/2/24 - 0100 50.8 - 36 24.9 40.2 NW | 312 1.5 6.0 NNE | 21 49.7 68.4 24.0
7/2/24 - 0000 53.2 - 33 24.7 41.3 NE | 53 1.2 7.8 NNE | 19 51.8 68.4 24.0
7/1/24 - 2300 55.4 - 34 27.6 43.2 ENE | 57 0.9 8.2 NE | 54 54.2 68.4 24.0
7/1/24 - 2200 57.1 - 38 31.5 45.2 NNE | 22 1.9 8.6 NNE | 33 55.2 68.4 24.0
7/1/24 - 2100 60.5 - 37 34.2 47.6 N | 351 1.9 10.6 N | 356 56.7 68.4 24.0
7/1/24 - 2000 62.2 - 40 37.4 49.5 W | 278 5.4 14.4 W | 263 56.7 68.4 24.0
7/1/24 - 1900 62.0 - 42 38.8 50.0 WSW | 258 8.3 19.7 WNW | 286 56.7 68.4 24.0
7/1/24 - 1800 64.2 - 36 36.5 49.9 WSW | 254 7.9 19.9 W | 263 56.7 68.4 24.0
7/1/24 - 1700 64.8 - 30 32.4 48.7 WSW | 258 8.8 23.8 WSW | 241 56.7 68.4 24.0
7/1/24 - 1600 65.1 - 22 25.7 46.8 W | 266 10.9 24.0 W | 264 56.7 68.4 24.0
7/1/24 - 1500 65.4 - 21 23.9 46.4 W | 263 8.9 22.8 W | 260 56.7 68.4 22.8
7/1/24 - 1400 65.6 - 21 24.1 46.6 WSW | 250 8.2 22.4 W | 262 56.7 68.4 22.4
7/1/24 - 1300 66.2 - 23 27.4 47.7 WSW | 255 5.4 16.1 W | 279 56.7 68.4 16.1
7/1/24 - 1200 65.3 - 29 31.8 48.7 SE | 139 2.8 8.9 SSE | 161 56.7 67.5 8.9
7/1/24 - 1100 60.7 - 37 34.2 47.7 ESE | 118 2.4 8.6 ESE | 102 56.7 64.7 8.6
7/1/24 - 1000 58.5 - 40 34.4 46.8 SE | 139 2.7 8.2 SSE | 160 56.7 61.5 8.2
7/1/24 - 0900 49.3 - 42 26.9 39.8 E | 90 2.2 3.0 E | 88 58.0 58.0 3.0
7/1/24 - 0800 55.5 - 45 34.4 45.6 SSE | 159 0.7 3.5 SE | 137 46.3 57.5 4.5
7/1/24 - 0700 51.3 - 53 34.6 43.7 W | 276 0.2 2.5 NW | 309 46.3 55.9 4.5
7/1/24 - 0600 47.2 - 60 34.2 41.5 NW | 316 1.6 4.4 NW | 319 46.3 51.1 4.5
7/1/24 - 0500 47.4 - 60 34.4 41.7 WNW | 302 1.9 3.6 NW | 314 46.6 51.1 4.5
7/1/24 - 0400 48.5 - 58 34.5 42.3 WNW | 289 1.8 3.7 NW | 311 47.2 51.1 4.5
7/1/24 - 0300 49.8 - 56 34.7 43.0 NNW | 328 1.2 4.5 NNE | 21 48.5 51.1 4.5
7/1/24 - 0200 50.1 - 54 33.9 42.9 NNW | 336 1.2 3.4 WNW | 298 49.6 50.9 3.4
7/1/24 - 0100 50.8 - 51 33.2 42.9 WNW | 292 2.0 4.4 NW | 312 50.1 63.6 30.9
7/1/24 - 0000 52.8 - 45 32.2 43.5 WNW | 302 1.6 5.8 WNW | 301 50.7 63.6 30.9
6/30/24 - 2300 55.6 - 34 27.0 43.2 NNW | 331 3.0 9.4 NW | 321 51.0 63.6 30.9
6/30/24 - 2200 56.9 - 38 31.3 45.1 W | 263 6.1 20.7 W | 276 51.0 63.6 30.9
6/30/24 - 2100 54.6 - 44 33.0 44.6 W | 265 8.5 23.2 W | 264 51.0 63.6 30.9
6/30/24 - 2000 54.9 - 43 32.8 44.7 W | 274 8.2 23.8 WNW | 284 51.0 63.6 30.9
6/30/24 - 1900 56.6 - 36 30.0 44.5 W | 275 7.4 20.2 W | 267 51.0 63.6 30.9
6/30/24 - 1800 58.9 - 33 29.9 45.4 W | 280 8.5 20.2 WNW | 284 51.0 63.6 30.9
6/30/24 - 1700 59.7 - 29 27.5 45.1 W | 279 6.7 20.4 W | 278 51.0 63.6 30.9
6/30/24 - 1600 60.1 - 27 26.4 44.9 W | 274 6.0 23.5 WNW | 303 51.0 63.6 30.9
6/30/24 - 1500 60.2 - 31 29.0 45.7 W | 281 7.2 26.4 NW | 324 51.0 63.6 30.9
6/30/24 - 1400 60.1 - 32 29.9 46.0 W | 266 6.3 22.7 W | 275 51.0 63.6 30.9
6/30/24 - 1300 61.6 - 26 26.3 45.5 WSW | 251 5.1 19.7 W | 262 51.0 63.6 30.9
6/30/24 - 1200 61.0 - 23 23.2 44.4 WSW | 241 5.6 23.3 W | 263 51.0 63.6 30.9
6/30/24 - 1100 60.2 - 24 22.8 44.0 WSW | 244 5.5 17.2 SW | 220 51.0 62.3 30.9
6/30/24 - 1000 57.8 - 27 23.7 43.2 W | 276 6.8 20.6 W | 279 51.0 59.6 30.9
6/30/24 - 0900 56.6 - 26 22.2 42.2 WSW | 241 4.6 17.0 WSW | 250 51.0 59.2 30.9
6/30/24 - 0800 53.5 - 34 25.4 41.7 WSW | 249 7.3 18.3 WSW | 244 51.0 56.1 30.9
6/30/24 - 0700 52.7 - 34 25.3 41.2 WSW | 258 9.5 22.8 W | 281 51.0 56.1 30.9
6/30/24 - 0600 51.6 - 35 25.0 40.6 W | 262 11.0 30.8 W | 274 51.0 56.1 30.9
6/30/24 - 0500 52.8 - 31 23.0 40.6 W | 274 12.9 30.9 W | 278 52.1 56.1 30.9
6/30/24 - 0400 53.9 - 27 20.5 40.6 W | 264 11.7 29.6 N | 352 53.1 56.1 29.6
6/30/24 - 0300 54.9 - 22 16.9 40.2 WSW | 254 10.2 26.0 WNW | 284 53.1 56.1 26.0
6/30/24 - 0200 54.6 - 27 20.8 41.0 WSW | 255 10.5 25.8 WSW | 238 53.1 56.1 25.8
6/30/24 - 0100 55.0 - 27 21.0 41.2 WSW | 248 9.5 25.2 WSW | 238 51.8 65.5 32.2
6/30/24 - 0000 55.0 - 31 24.6 42.2 W | 262 12.8 32.2 W | 272 51.8 65.5 32.2
6/29/24 - 2300 53.6 - 43 31.8 43.7 W | 264 8.8 26.2 WNW | 296 51.8 65.5 27.8
6/29/24 - 2200 52.9 - 46 32.9 43.8 W | 268 4.8 17.8 WNW | 290 51.8 65.5 27.8
6/29/24 - 2100 53.7 - 46 33.2 44.3 W | 274 8.3 26.0 W | 277 51.8 65.5 27.8
6/29/24 - 2000 55.8 - 39 31.0 44.5 W | 275 8.2 23.2 W | 272 51.8 65.5 27.8
6/29/24 - 1900 58.0 - 32 28.3 44.5 WNW | 284 8.4 23.2 WNW | 286 51.8 65.5 27.8
6/29/24 - 1800 60.5 - 28 27.0 45.2 WNW | 286 8.1 22.2 NW | 306 51.8 65.5 27.8
6/29/24 - 1700 62.0 - 22 22.4 44.6 WNW | 286 7.9 20.6 WNW | 295 51.8 65.5 27.8
6/29/24 - 1600 62.8 - 20 20.9 44.6 W | 270 5.5 23.7 WNW | 293 51.8 65.5 27.8
6/29/24 - 1500 62.7 - 19 19.8 44.4 W | 267 5.1 20.4 NW | 306 51.8 65.5 27.8
6/29/24 - 1400 62.2 - 18 18.1 43.8 W | 260 5.8 27.8 WNW | 283 51.8 65.5 27.8
6/29/24 - 1300 63.1 - 21 22.1 45.0 WSW | 241 5.6 21.5 W | 272 51.8 65.5 21.7
6/29/24 - 1200 62.3 - 22 23.3 45.0 WSW | 258 7.9 21.7 W | 273 51.8 65.5 21.7
6/29/24 - 1100 63.3 - 21 22.2 45.1 W | 264 8.2 19.6 W | 272 51.8 65.5 19.6
6/29/24 - 1000 62.8 - 22 23.5 45.3 SW | 220 4.2 18.4 WNW | 282 51.8 65.5 18.4
6/29/24 - 0900 62.2 - 26 26.9 46.0 ESE | 119 2.5 6.4 SE | 144 51.8 65.5 10.4
6/29/24 - 0800 61.6 - 29 28.9 46.3 WSW | 254 2.8 9.0 W | 279 51.8 63.5 10.4
6/29/24 - 0700 56.8 - 32 27.5 43.8 WNW | 285 1.6 6.5 W | 279 51.8 61.5 10.4
6/29/24 - 0600 53.0 - 34 25.6 41.4 WNW | 293 3.4 8.1 W | 281 51.8 55.9 10.4
6/29/24 - 0500 52.7 - 35 25.7 41.3 WNW | 292 2.8 7.3 WNW | 282 52.0 55.9 10.4
6/29/24 - 0400 53.1 - 35 26.3 41.7 WNW | 287 4.1 9.4 W | 278 52.5 55.9 10.4
6/29/24 - 0300 54.7 - 32 25.6 42.2 NW | 323 1.1 9.6 W | 278 53.5 55.9 10.4
6/29/24 - 0200 54.6 - 32 25.6 42.2 WNW | 287 4.9 10.4 W | 267 53.9 55.3 10.4
6/29/24 - 0100 56.2 - 32 26.5 43.2 W | 281 4.4 8.8 W | 273 49.1 68.7 28.5
6/29/24 - 0000 58.0 - 28 25.3 43.6 WNW | 292 4.5 13.8 WNW | 287 49.1 68.7 28.5
6/28/24 - 2300 58.1 - 27 24.2 43.4 NW | 312 5.2 18.6 NE | 54 49.1 68.7 28.5
6/28/24 - 2200 57.9 - 25 21.7 42.7 WSW | 252 10.4 28.4 W | 261 49.1 68.7 28.5
6/28/24 - 2100 57.6 - 28 24.6 43.3 WSW | 255 12.7 27.5 W | 259 49.1 68.7 28.5
6/28/24 - 2000 58.1 - 28 24.9 43.6 WSW | 257 13.3 28.2 WSW | 245 49.1 68.7 28.5
6/28/24 - 1900 59.6 - 26 24.6 44.2 W | 261 12.3 28.5 WSW | 244 49.1 68.7 28.5
6/28/24 - 1800 61.7 - 25 25.2 45.2 W | 269 12.0 26.3 WSW | 252 49.1 68.7 26.5
6/28/24 - 1700 62.8 - 21 21.9 44.9 W | 275 9.4 25.2 W | 272 49.1 68.7 26.5
6/28/24 - 1600 63.9 - 20 22.0 45.4 W | 268 6.8 22.9 W | 276 49.1 68.7 26.5
6/28/24 - 1500 65.0 - 19 21.6 45.7 WSW | 256 6.5 19.7 SW | 220 49.1 68.7 26.5
6/28/24 - 1400 65.8 - 18 21.5 46.0 WSW | 258 7.4 24.3 WNW | 292 49.1 68.7 26.5
6/28/24 - 1300 65.6 - 16 18.3 45.2 W | 268 8.5 23.0 W | 261 49.1 67.7 26.5
6/28/24 - 1200 64.8 - 17 18.8 45.0 W | 262 6.1 21.3 WNW | 283 49.1 67.0 26.5
6/28/24 - 1100 64.4 - 17 18.9 44.9 SSW | 198 3.0 13.0 WSW | 254 49.1 66.0 26.5
6/28/24 - 1000 63.8 - 19 20.5 45.0 SSE | 151 1.7 5.4 ESE | 112 49.1 65.9 26.5
6/28/24 - 0900 61.4 - 15 11.0 42.4 SSE | 155 1.2 4.8 S | 171 49.1 63.1 26.5
6/28/24 - 0800 60.0 - 11 5.3 40.6 SE | 132 1.1 4.3 ESE | 118 49.1 61.8 26.5
6/28/24 - 0700 57.0 - 13 6.9 39.4 W | 259 1.5 7.8 SW | 232 49.1 58.9 26.5
6/28/24 - 0600 53.9 - 15 7.5 38.0 NNW | 329 2.2 9.6 NNW | 330 49.1 56.7 26.5
6/28/24 - 0500 51.4 - 21 12.0 37.5 NW | 311 4.4 15.7 WNW | 284 49.1 56.7 26.5
6/28/24 - 0400 53.1 - 20 12.2 38.4 NNW | 331 2.8 8.8 WNW | 284 49.8 56.7 26.5
6/28/24 - 0300 55.2 - 20 14.3 39.8 W | 274 4.0 18.5 WSW | 241 54.6 56.7 26.5
6/28/24 - 0200 55.9 - 20 15.3 40.4 WSW | 254 6.1 26.5 W | 260 55.4 56.7 26.5
6/28/24 - 0100 55.8 - 21 16.3 40.5 WSW | 254 10.4 27.8 WNW | 286 49.8 62.9 30.4
6/28/24 - 0000 57.0 - 17 12.9 40.4 W | 265 11.8 26.6 W | 273 49.8 62.9 30.4
6/27/24 - 2300 57.2 - 23 19.3 41.9 W | 267 11.2 25.2 W | 275 49.8 62.9 30.4
6/27/24 - 2200 55.3 - 29 23.3 42.0 W | 274 14.2 27.8 WNW | 292 49.8 62.9 30.4
6/27/24 - 2100 54.3 - 34 26.2 42.3 W | 268 11.1 22.9 WNW | 282 49.8 62.9 30.4
6/27/24 - 2000 55.2 - 34 27.3 43.0 W | 273 5.2 17.6 WNW | 292 49.8 62.9 30.4
6/27/24 - 1900 56.5 - 33 27.9 43.8 W | 276 9.2 23.3 W | 280 49.8 62.9 30.4
6/27/24 - 1800 59.4 - 27 25.0 44.2 W | 275 12.3 29.2 WNW | 289 49.8 62.9 30.4
6/27/24 - 1700 60.2 - 23 22.7 44.0 W | 279 11.4 27.5 NW | 309 49.8 62.9 30.4
6/27/24 - 1600 60.6 - 26 25.1 44.8 WSW | 258 6.7 26.5 WNW | 286 49.8 62.9 30.4
6/27/24 - 1500 60.9 - 25 25.1 44.9 W | 259 6.3 22.5 WNW | 287 49.8 62.9 30.4
6/27/24 - 1400 60.9 - 25 25.2 44.9 W | 263 5.5 20.5 W | 274 49.8 62.9 30.4
6/27/24 - 1300 60.0 - 29 28.0 45.3 WSW | 248 4.9 18.7 SW | 234 49.8 62.9 30.4
6/27/24 - 1200 58.8 - 35 30.9 45.8 WSW | 252 5.7 26.8 WSW | 243 49.8 60.1 30.4
6/27/24 - 1100 57.6 - 38 32.2 45.7 WSW | 239 9.8 30.4 WSW | 237 49.8 59.5 30.4
6/27/24 - 1000 56.2 - 47 36.4 46.7 WSW | 244 11.8 26.8 W | 272 49.8 57.3 27.2
6/27/24 - 0900 53.7 - 61 40.5 47.3 WSW | 245 9.9 24.8 WSW | 255 49.8 54.9 27.2
6/27/24 - 0800 51.9 - 67 41.4 47.0 WSW | 252 7.5 21.4 W | 266 49.8 53.7 27.2
6/27/24 - 0700 51.0 - 69 41.1 46.4 W | 266 7.3 23.1 W | 278 49.8 51.6 27.2
6/27/24 - 0600 50.2 - 70 41.0 46.0 W | 262 8.2 27.2 W | 273 49.8 51.0 27.2
6/27/24 - 0500 50.4 - 70 41.1 46.1 W | 263 6.9 23.9 SW | 235 50.0 51.0 24.9
6/27/24 - 0400 50.3 - 69 40.4 45.7 W | 272 7.3 24.9 WSW | 252 50.1 51.0 24.9
6/27/24 - 0300 50.5 - 65 39.2 45.3 W | 270 4.9 16.5 NW | 307 50.1 51.0 24.0
6/27/24 - 0200 50.7 - 64 38.9 45.3 W | 273 6.2 24.0 NW | 314 50.3 51.0 24.0
6/27/24 - 0100 51.0 - 65 39.4 45.6 W | 274 6.9 28.1 W | 261 50.8 67.0 28.1
6/27/24 - 0000 51.0 - 62 38.3 45.2 W | 272 6.8 23.2 WNW | 288 50.8 67.0 25.5
6/26/24 - 2300 51.7 - 58 37.4 45.1 W | 268 6.1 16.7 WNW | 284 51.0 67.0 25.5
6/26/24 - 2200 52.5 - 54 36.5 45.1 W | 270 4.3 18.4 WSW | 251 52.0 67.0 25.5
6/26/24 - 2100 54.0 - 50 35.8 45.5 W | 265 4.3 14.7 WNW | 286 53.0 67.0 25.5
6/26/24 - 2000 55.9 - 47 36.0 46.4 W | 269 3.3 14.5 W | 273 53.8 67.0 25.5
6/26/24 - 1900 57.8 - 46 37.5 47.8 W | 272 4.4 23.2 WSW | 237 53.8 67.0 25.5
6/26/24 - 1800 61.0 - 44 39.3 49.9 WSW | 246 4.7 24.7 SW | 222 53.8 67.0 25.5
6/26/24 - 1700 62.6 - 41 38.6 50.2 WSW | 254 5.9 22.3 SW | 236 53.8 67.0 25.5
6/26/24 - 1600 64.1 - 40 39.2 51.0 WSW | 249 7.0 24.2 SW | 231 53.8 67.0 25.5
6/26/24 - 1500 64.1 - 39 38.8 50.8 W | 263 7.3 22.9 WNW | 293 53.8 67.0 25.5
6/26/24 - 1400 63.7 - 39 38.4 50.5 W | 278 5.4 25.5 WNW | 285 53.8 67.0 25.5
6/26/24 - 1300 64.2 - 40 39.4 51.1 WSW | 239 5.1 19.7 W | 266 53.8 66.6 24.0
6/26/24 - 1200 63.3 - 43 40.4 51.2 W | 259 5.6 19.5 WSW | 249 53.8 65.6 24.0
6/26/24 - 1100 61.2 - 47 40.8 50.6 N | 0 6.2 18.8 W | 279 53.8 63.0 24.0
6/26/24 - 1000 59.4 - 50 40.9 50.0 W | 259 8.2 21.4 W | 274 53.8 61.1 24.0
6/26/24 - 0900 57.3 - 55 41.6 49.4 WSW | 250 7.1 18.8 W | 266 53.8 58.9 24.0
6/26/24 - 0800 55.8 - 57 40.8 48.4 WSW | 253 7.5 24.0 WSW | 237 53.8 57.3 24.0
6/26/24 - 0700 54.7 - 58 40.4 47.8 WSW | 253 4.3 17.6 WSW | 237 53.8 55.3 23.3
6/26/24 - 0600 54.1 - 60 40.7 47.7 NE | 42 1.3 12.2 NW | 323 53.8 55.1 23.3
6/26/24 - 0500 54.4 - 62 41.5 48.1 W | 265 2.1 23.1 NW | 318 54.0 55.1 23.3
6/26/24 - 0400 54.3 - 63 42.1 48.4 W | 275 9.5 23.3 W | 277 54.2 55.1 23.3
6/26/24 - 0300 54.3 - 67 43.4 49.1 W | 264 8.3 22.8 W | 281 54.2 55.1 23.1
6/26/24 - 0200 54.6 - 64 42.8 48.9 W | 260 9.8 23.1 WSW | 247 54.3 55.1 23.1
6/26/24 - 0100 55.6 - 63 43.1 49.5 WSW | 258 8.5 25.3 W | 272 54.9 73.0 25.3
6/26/24 - 0000 56.2 - 59 41.9 49.1 W | 268 10.8 22.9 WSW | 252 55.8 73.0 22.9
6/25/24 - 2300 56.8 - 55 40.8 48.9 W | 271 9.2 19.0 WSW | 258 55.9 73.0 21.2
6/25/24 - 2200 56.6 - 55 40.7 48.7 WSW | 242 6.5 13.1 SW | 230 55.9 73.0 21.2
6/25/24 - 2100 56.6 - 53 39.9 48.4 WSW | 250 5.6 15.4 SW | 232 55.9 73.0 21.2
6/25/24 - 2000 58.4 - 53 41.1 49.6 WNW | 282 6.9 15.0 WNW | 290 56.1 73.0 21.2
6/25/24 - 1900 60.1 - 53 42.7 51.0 W | 260 4.4 17.0 W | 260 56.1 73.0 21.2
6/25/24 - 1800 62.7 - 51 44.3 52.8 WSW | 244 6.5 21.2 WSW | 237 56.1 73.0 21.2
6/25/24 - 1700 66.6 - 42 42.8 53.4 WSW | 239 6.4 20.9 SSW | 212 56.1 73.0 20.9
6/25/24 - 1600 68.2 - 36 40.1 52.8 WSW | 256 5.6 20.1 WNW | 289 56.1 73.0 20.1
6/25/24 - 1500 69.0 - 36 40.8 53.4 WSW | 255 5.9 18.6 SW | 232 56.1 73.0 18.6
6/25/24 - 1400 67.0 - 39 41.2 52.8 WSW | 237 5.2 15.4 WSW | 249 56.1 73.0 17.7
6/25/24 - 1300 69.4 - 35 40.4 53.3 SW | 214 3.4 15.1 WNW | 289 56.1 73.0 17.7
6/25/24 - 1200 68.4 - 38 42.1 53.7 SE | 140 3.3 9.8 SE | 136 56.1 71.8 17.7
6/25/24 - 1100 67.9 - 39 41.8 53.4 SSE | 148 3.9 14.1 SW | 227 56.1 71.8 17.7
6/25/24 - 1000 63.8 - 44 41.5 51.9 W | 262 3.8 13.5 WNW | 287 56.1 67.5 17.7
6/25/24 - 0900 60.1 - 49 41.2 50.4 W | 275 3.8 10.0 WNW | 288 56.1 61.2 17.7
6/25/24 - 0800 58.3 - 52 40.9 49.5 SW | 232 1.9 11.2 WSW | 256 56.1 60.3 17.7
6/25/24 - 0700 56.6 - 58 41.9 49.3 W | 266 2.3 15.1 W | 278 56.1 58.4 17.7
6/25/24 - 0600 57.1 - 56 41.6 49.4 WSW | 257 0.8 6.2 SSW | 207 56.8 58.4 17.7
6/25/24 - 0500 57.6 - 53 40.6 49.1 WSW | 248 1.1 9.2 NW | 310 57.3 58.4 17.7
6/25/24 - 0400 57.9 - 48 38.5 48.3 W | 269 2.3 10.8 W | 266 57.5 58.4 17.7
6/25/24 - 0300 58.1 - 49 38.9 48.5 W | 272 3.3 12.4 W | 278 57.7 58.4 17.7
6/25/24 - 0200 57.9 - 48 38.4 48.2 W | 264 5.1 17.7 WNW | 296 57.7 58.4 17.7
6/25/24 - 0100 57.7 - 48 38.3 48.1 W | 259 6.1 14.1 W | 259 54.1 70.1 41.0
6/25/24 - 0000 57.4 - 53 40.4 48.9 W | 272 8.1 18.2 W | 280 54.1 70.1 41.0
6/24/24 - 2300 57.3 - 52 39.9 48.6 W | 270 7.8 19.7 W | 263 54.1 70.1 41.0
6/24/24 - 2200 55.6 - 60 41.8 48.8 WNW | 300 2.1 10.0 WNW | 285 54.1 70.1 41.0
6/24/24 - 2100 56.4 - 58 42.0 49.2 NNW | 342 1.0 3.9 NNE | 22 54.8 70.1 41.0
6/24/24 - 2000 59.8 - 51 41.4 50.4 NNW | 347 0.7 4.6 NE | 35 54.8 70.1 41.0
6/24/24 - 1900 59.8 - 50 41.1 50.2 W | 272 4.6 15.6 WSW | 246 54.8 70.1 41.0
6/24/24 - 1800 59.2 - 53 42.3 50.5 W | 264 6.8 19.4 WSW | 257 54.8 70.1 41.0
6/24/24 - 1700 57.5 - 54 41.1 49.3 W | 266 13.1 41.0 W | 264 54.8 70.1 41.0
6/24/24 - 1600 59.9 - 51 41.7 50.5 W | 274 9.8 36.5 WNW | 282 54.8